createdAt,value
2023-09-13T00:01:51.530Z,22.15
2023-09-13T00:04:21.936Z,24.45
2023-09-13T00:06:49.912Z,24.77
2023-09-13T00:09:17.482Z,22.48
2023-09-13T00:11:45.111Z,24.27
2023-09-13T00:14:14.036Z,18.83
2023-09-13T00:16:41.676Z,21.60
2023-09-13T00:19:09.623Z,24.50
2023-09-13T00:21:41.590Z,18.63
2023-09-13T00:24:12.142Z,23.23
2023-09-13T00:26:39.781Z,25.05
2023-09-13T00:29:07.346Z,22.92
2023-09-13T00:31:36.460Z,24.75
2023-09-13T00:34:04.229Z,26.38
2023-09-13T00:36:32.230Z,28.45
2023-09-13T00:38:59.795Z,27.38
2023-09-13T00:41:27.369Z,31.02
2023-09-13T00:43:54.933Z,31.45
2023-09-13T00:46:22.938Z,29.77
2023-09-13T00:48:51.874Z,33.10
2023-09-13T00:51:19.891Z,34.08
2023-09-13T00:53:48.908Z,33.47
2023-09-13T00:56:18.619Z,37.00
2023-09-13T00:58:48.645Z,35.40
2023-09-13T01:01:17.356Z,38.95
2023-09-13T01:03:46.125Z,43.38
2023-09-13T01:06:15.969Z,37.72
2023-09-13T01:08:44.286Z,38.33
2023-09-13T01:11:12.555Z,38.08
2023-09-13T01:13:40.227Z,38.65
2023-09-13T01:16:15.536Z,41.15
2023-09-13T01:18:49.312Z,38.15
2023-09-13T01:21:42.568Z,37.30
2023-09-13T01:24:27.984Z,38.95
2023-09-13T01:27:08.870Z,42.63
2023-09-13T01:29:39.088Z,43.10
2023-09-13T01:32:06.887Z,43.60
2023-09-13T01:34:34.454Z,43.58
2023-09-13T01:37:02.064Z,43.08
2023-09-13T01:39:30.284Z,46.10
2023-09-13T01:42:02.591Z,45.08
2023-09-13T01:44:30.850Z,42.80
2023-09-13T01:47:02.805Z,40.67
2023-09-13T01:49:31.421Z,46.10
2023-09-13T01:51:59.436Z,46.78
2023-09-13T01:54:27.067Z,48.40
2023-09-13T01:56:54.615Z,52.58
2023-09-13T01:59:22.214Z,49.60
2023-09-13T02:01:49.930Z,50.13
2023-09-13T02:04:18.936Z,54.25
2023-09-13T02:06:46.777Z,60.25
2023-09-13T02:09:14.404Z,66.82
2023-09-13T02:11:42.003Z,68.68
2023-09-13T02:14:09.681Z,66.25
2023-09-13T02:16:37.322Z,65.25
2023-09-13T02:19:05.762Z,68.60
2023-09-13T02:21:34.654Z,69.03
2023-09-13T02:24:02.386Z,62.90
2023-09-13T02:26:30.012Z,66.28
2023-09-13T02:28:57.580Z,70.03
2023-09-13T02:31:26.881Z,65.53
2023-09-13T02:33:54.744Z,68.05
2023-09-13T02:36:23.197Z,61.75
2023-09-13T02:38:52.217Z,62.70
2023-09-13T02:41:19.828Z,61.10
2023-09-13T02:43:47.677Z,62.40
2023-09-13T02:46:15.639Z,64.38
2023-09-13T02:48:43.447Z,52.75
2023-09-13T02:51:14.007Z,45.47
2023-09-13T02:53:41.743Z,49.05
2023-09-13T02:56:11.278Z,42.42
2023-09-13T02:58:39.263Z,43.47
2023-09-13T03:01:11.636Z,40.65
2023-09-13T03:03:39.888Z,40.97
2023-09-13T03:06:11.224Z,44.50
2023-09-13T03:08:38.799Z,45.13
2023-09-13T03:11:15.073Z,48.22
2023-09-13T03:13:43.269Z,49.03
2023-09-13T03:16:15.219Z,47.03
2023-09-13T03:18:43.472Z,54.80
2023-09-13T03:21:12.457Z,49.72
2023-09-13T03:23:41.200Z,49.72
2023-09-13T03:26:15.815Z,50.30
2023-09-13T03:28:45.213Z,45.60
2023-09-13T03:31:14.006Z,56.42
2023-09-13T03:33:42.911Z,53.83
2023-09-13T03:36:12.223Z,53.42
2023-09-13T03:38:41.596Z,60.20
2023-09-13T03:41:10.007Z,54.80
2023-09-13T03:43:39.016Z,63.15
2023-09-13T03:46:08.240Z,63.90
2023-09-13T03:48:37.914Z,60.05
2023-09-13T03:51:05.542Z,64.97
2023-09-13T03:53:33.230Z,62.28
2023-09-13T03:56:01.899Z,62.22
2023-09-13T03:58:30.086Z,66.85
2023-09-13T04:01:00.076Z,68.55
2023-09-13T04:03:28.476Z,60.10
2023-09-13T04:05:56.230Z,62.67
2023-09-13T04:08:23.963Z,59.22
2023-09-13T04:10:52.006Z,60.03
2023-09-13T04:13:19.639Z,52.85
2023-09-13T04:15:47.327Z,54.80
2023-09-13T04:18:16.373Z,64.20
2023-09-13T04:20:44.674Z,51.17
2023-09-13T04:23:12.259Z,53.67
2023-09-13T04:25:39.935Z,53.60
2023-09-13T04:28:07.909Z,51.78
2023-09-13T04:30:35.685Z,55.42
2023-09-13T04:33:05.754Z,47.60
2023-09-13T04:35:34.949Z,56.22
2023-09-13T04:38:02.516Z,51.97
2023-09-13T04:40:30.183Z,48.30
2023-09-13T04:43:24.561Z,48.08
2023-09-13T04:45:53.407Z,42.60
2023-09-13T04:48:20.994Z,43.22
2023-09-13T04:50:49.892Z,43.67
2023-09-13T04:53:17.459Z,44.08
2023-09-13T04:55:46.812Z,42.75
2023-09-13T04:58:14.384Z,44.05
2023-09-13T05:00:42.004Z,49.17
2023-09-13T05:03:09.748Z,54.50
2023-09-13T05:05:37.393Z,48.17
2023-09-13T05:08:07.121Z,53.33
2023-09-13T05:10:34.739Z,55.40
2023-09-13T05:13:02.571Z,58.00
2023-09-13T05:15:30.154Z,55.08
2023-09-13T05:17:57.741Z,57.20
2023-09-13T05:20:27.755Z,51.72
2023-09-13T05:22:55.342Z,56.28
2023-09-13T05:25:24.367Z,60.10
2023-09-13T05:27:51.992Z,59.03
2023-09-13T05:30:19.621Z,58.53
2023-09-13T05:32:47.430Z,57.88
2023-09-13T05:35:17.649Z,60.17
2023-09-13T05:37:45.247Z,61.88
2023-09-13T05:40:13.647Z,60.28
2023-09-13T05:42:42.624Z,62.80
2023-09-13T05:45:11.210Z,61.58
2023-09-13T05:47:38.789Z,62.70
2023-09-13T05:50:07.651Z,56.42
2023-09-13T05:52:35.315Z,52.58
2023-09-13T05:55:02.939Z,59.38
2023-09-13T05:57:30.534Z,53.00
2023-09-13T05:59:59.440Z,50.58
2023-09-13T06:02:27.154Z,54.08
2023-09-13T06:04:54.764Z,58.95
2023-09-13T06:07:22.429Z,58.92
2023-09-13T06:09:50.044Z,55.63
2023-09-13T06:12:17.639Z,50.40
2023-09-13T06:14:46.674Z,47.42
2023-09-13T06:17:15.568Z,52.13
2023-09-13T06:19:43.371Z,53.13
2023-09-13T06:22:10.992Z,57.70
2023-09-13T06:24:38.658Z,50.13
2023-09-13T06:27:06.701Z,53.15
2023-09-13T06:29:34.290Z,46.60
2023-09-13T06:32:06.227Z,48.55
2023-09-13T06:34:35.927Z,46.97
2023-09-13T06:37:05.352Z,50.55
2023-09-13T06:39:36.051Z,49.65
2023-09-13T06:42:22.145Z,53.28
2023-09-13T06:44:52.942Z,52.10
2023-09-13T06:47:22.860Z,52.90
2023-09-13T06:49:52.465Z,50.72
2023-09-13T06:52:22.298Z,53.70
2023-09-13T06:54:52.621Z,49.30
2023-09-13T06:57:23.433Z,48.58
2023-09-13T06:59:57.020Z,48.78
2023-09-13T07:07:37.400Z,41.83
2023-09-13T07:10:05.467Z,45.70
2023-09-13T07:12:33.101Z,47.17
2023-09-13T07:15:00.696Z,51.13
2023-09-13T07:17:28.467Z,52.88
2023-09-13T07:19:56.901Z,49.95
2023-09-13T07:22:25.912Z,50.33
2023-09-13T07:24:54.016Z,49.17
2023-09-13T07:27:21.717Z,47.50
2023-09-13T07:29:50.855Z,40.88
2023-09-13T07:32:19.209Z,50.33
2023-09-13T07:34:46.801Z,48.65
2023-09-13T07:37:14.526Z,47.50
2023-09-13T07:39:43.650Z,46.58
2023-09-13T07:42:12.378Z,47.20
2023-09-13T07:44:39.938Z,48.90
2023-09-13T07:47:07.953Z,44.53
2023-09-13T07:49:35.641Z,54.22
2023-09-13T07:52:03.507Z,50.28
2023-09-13T07:54:31.086Z,45.13
2023-09-13T07:56:59.998Z,44.17
2023-09-13T07:59:28.372Z,49.67
2023-09-13T08:01:56.008Z,46.70
2023-09-13T08:04:23.638Z,45.13
2023-09-13T08:06:51.355Z,44.13
2023-09-13T08:09:18.914Z,47.17
2023-09-13T08:11:48.186Z,42.28
2023-09-13T08:14:17.204Z,47.33
2023-09-13T08:16:44.913Z,39.17
2023-09-13T08:19:12.715Z,41.42
2023-09-13T08:21:42.496Z,37.90
2023-09-13T08:24:10.152Z,39.28
2023-09-13T08:26:37.719Z,35.25
2023-09-13T08:29:05.408Z,41.65
2023-09-13T08:31:34.422Z,42.50
2023-09-13T08:34:02.034Z,35.40
2023-09-13T08:36:29.712Z,41.70
2023-09-13T08:38:57.675Z,35.90
2023-09-13T08:41:25.379Z,36.95
2023-09-13T08:43:54.458Z,36.67
2023-09-13T08:46:24.952Z,34.05
2023-09-13T08:48:56.681Z,38.90
2023-09-13T08:51:24.632Z,33.22
2023-09-13T08:53:53.174Z,38.50
2023-09-13T08:56:23.432Z,32.17
2023-09-13T08:58:53.272Z,35.75
2023-09-13T09:01:24.493Z,36.97
2023-09-13T09:03:52.533Z,34.35
2023-09-13T09:06:23.116Z,31.92
2023-09-13T09:08:52.829Z,30.42
2023-09-13T09:11:23.711Z,31.17
2023-09-13T09:13:54.069Z,33.90
2023-09-13T09:16:22.946Z,33.22
2023-09-13T09:18:53.714Z,33.40
2023-09-13T09:21:23.024Z,29.92
2023-09-13T09:23:51.729Z,34.85
2023-09-13T09:26:19.319Z,29.20
2023-09-13T09:28:49.082Z,28.45
2023-09-13T09:31:20.750Z,29.67
2023-09-13T09:33:48.529Z,33.22
2023-09-13T09:36:17.933Z,29.15
2023-09-13T09:38:47.320Z,29.00
2023-09-13T09:41:14.928Z,30.88
2023-09-13T09:43:45.445Z,26.15
2023-09-13T09:46:13.225Z,30.00
2023-09-13T09:48:41.072Z,28.35
2023-09-13T09:51:08.692Z,28.95
2023-09-13T09:53:37.137Z,25.90
2023-09-13T09:56:06.740Z,27.40
2023-09-13T09:58:35.539Z,27.00
2023-09-13T10:01:05.166Z,30.58
2023-09-13T10:03:34.996Z,26.63
2023-09-13T10:06:05.041Z,27.48
2023-09-13T10:08:39.687Z,26.27
2023-09-13T10:11:09.525Z,25.67
2023-09-13T10:13:38.486Z,26.88
2023-09-13T10:16:08.950Z,26.02
2023-09-13T10:18:40.566Z,22.48
2023-09-13T10:21:10.773Z,21.48
2023-09-13T10:23:42.572Z,22.48
2023-09-13T10:26:14.480Z,21.65
2023-09-13T10:28:46.012Z,19.27
2023-09-13T10:31:19.243Z,20.88
2023-09-13T10:33:52.664Z,24.67
2023-09-13T10:36:29.678Z,23.00
2023-09-13T10:39:06.644Z,16.45
2023-09-13T10:41:41.141Z,12.18
2023-09-13T10:44:10.366Z,14.02
2023-09-13T10:46:38.559Z,13.10
2023-09-13T10:49:06.295Z,10.57
2023-09-13T10:51:34.690Z,10.38
2023-09-13T10:54:03.548Z,8.00
2023-09-13T10:56:32.037Z,8.85
2023-09-13T10:59:02.689Z,9.05
2023-09-13T11:01:32.433Z,7.65
2023-09-13T11:04:00.834Z,5.80
2023-09-13T11:06:29.759Z,10.85
2023-09-13T11:09:11.854Z,8.40
2023-09-13T11:11:39.436Z,5.50
2023-09-13T11:14:12.775Z,4.05
2023-09-13T11:16:43.576Z,5.47
2023-09-13T11:19:12.600Z,3.83
2023-09-13T11:21:52.385Z,4.82
2023-09-13T11:25:00.832Z,5.05
2023-09-13T11:27:30.614Z,6.10
2023-09-13T11:30:01.042Z,6.43
2023-09-13T11:32:32.014Z,5.07
2023-09-13T11:35:00.997Z,4.45
2023-09-13T11:37:29.255Z,5.80
2023-09-13T11:39:57.497Z,7.88
2023-09-13T11:42:35.516Z,3.88
2023-09-13T11:45:19.560Z,6.47
2023-09-13T11:47:57.358Z,7.63
2023-09-13T11:50:41.933Z,4.53
2023-09-13T11:53:17.811Z,4.70
2023-09-13T11:56:00.714Z,5.45
2023-09-13T11:58:38.522Z,5.07
2023-09-13T12:01:13.137Z,4.35
2023-09-13T12:08:43.319Z,5.28
2023-09-13T12:11:16.200Z,5.38
2023-09-13T12:14:06.378Z,4.93
2023-09-13T12:16:34.437Z,4.85
2023-09-13T12:19:02.548Z,5.55
2023-09-13T12:21:30.349Z,5.43
2023-09-13T12:23:58.053Z,5.60
2023-09-13T12:26:26.911Z,4.97
2023-09-13T12:28:55.299Z,4.65
2023-09-13T12:31:22.950Z,6.88
2023-09-13T12:33:53.425Z,6.75
2023-09-13T12:36:21.626Z,8.68
2023-09-13T12:38:50.483Z,5.88
2023-09-13T12:41:19.761Z,5.95
2023-09-13T12:43:49.872Z,5.63
2023-09-13T12:46:19.681Z,5.82
2023-09-13T12:48:48.583Z,4.10
2023-09-13T12:51:23.607Z,6.50
2023-09-13T12:53:53.104Z,4.88
2023-09-13T12:56:20.833Z,4.55
2023-09-13T12:58:49.544Z,4.43
2023-09-13T13:01:17.540Z,5.65
2023-09-13T13:03:59.994Z,7.60
2023-09-13T13:06:29.431Z,7.90
2023-09-13T13:09:06.486Z,3.70
2023-09-13T13:11:35.512Z,6.65
2023-09-13T13:14:03.660Z,6.25
2023-09-13T13:16:43.608Z,4.63
2023-09-13T13:22:08.807Z,6.50
2023-09-13T13:24:39.538Z,2.92
2023-09-13T13:27:07.270Z,4.90
2023-09-13T13:29:36.470Z,5.75
2023-09-13T13:32:05.211Z,3.17
2023-09-13T13:34:33.494Z,3.42
2023-09-13T13:37:02.526Z,4.80
2023-09-13T13:39:30.163Z,4.93
2023-09-13T13:41:57.820Z,2.75
2023-09-13T13:44:25.522Z,4.47
2023-09-13T13:46:53.127Z,5.70
2023-09-13T13:49:20.756Z,4.85
2023-09-13T13:51:51.598Z,3.22
2023-09-13T13:54:21.368Z,4.15
2023-09-13T13:56:49.794Z,4.32
2023-09-13T13:59:18.656Z,3.53
2023-09-13T14:01:46.400Z,4.60
2023-09-13T14:04:15.446Z,5.10
2023-09-13T14:06:46.849Z,2.35
2023-09-13T14:09:17.579Z,5.40
2023-09-13T14:11:47.412Z,2.88
2023-09-13T14:14:18.386Z,4.53
2023-09-13T14:16:46.127Z,3.95
2023-09-13T14:19:13.944Z,2.17
2023-09-13T14:21:41.701Z,4.50
2023-09-13T14:24:10.065Z,3.97
2023-09-13T14:26:37.613Z,4.28
2023-09-13T14:29:08.438Z,6.78
2023-09-13T14:31:38.587Z,5.03
2023-09-13T14:34:07.727Z,5.85
2023-09-13T14:36:35.671Z,2.92
2023-09-13T14:39:03.916Z,7.55
2023-09-13T14:41:31.537Z,2.55
2023-09-13T14:43:59.457Z,9.63
2023-09-13T14:46:28.767Z,2.70
2023-09-13T14:48:56.510Z,7.85
2023-09-13T14:51:24.222Z,3.15
2023-09-13T14:53:51.909Z,3.30
2023-09-13T14:56:19.450Z,3.80
2023-09-13T14:58:47.258Z,3.08
2023-09-13T15:01:15.133Z,5.38
2023-09-13T15:03:44.647Z,4.88
2023-09-13T15:06:16.778Z,5.07
2023-09-13T15:08:45.152Z,4.85
2023-09-13T15:11:13.010Z,4.65
2023-09-13T15:13:40.628Z,2.17
2023-09-13T15:16:08.779Z,7.53
2023-09-13T15:18:36.514Z,5.13
2023-09-13T15:21:06.334Z,4.38
2023-09-13T15:23:33.936Z,5.60
2023-09-13T15:26:01.641Z,4.65
2023-09-13T15:28:30.815Z,6.15
2023-09-13T15:30:58.670Z,2.88
2023-09-13T15:33:27.038Z,4.07
2023-09-13T15:35:54.742Z,4.38
2023-09-13T15:38:23.700Z,2.25
2023-09-13T15:40:51.250Z,4.35
2023-09-13T15:43:20.882Z,4.38
2023-09-13T15:45:48.502Z,9.07
2023-09-13T15:48:16.278Z,4.68
2023-09-13T15:50:43.934Z,3.63
2023-09-13T15:53:11.553Z,9.25
2023-09-13T15:55:40.495Z,2.58
2023-09-13T15:58:08.106Z,6.50
2023-09-13T16:00:35.877Z,5.03
2023-09-13T16:03:03.838Z,3.00
2023-09-13T16:05:31.645Z,6.10
2023-09-13T16:07:59.260Z,4.28
2023-09-13T16:10:27.722Z,4.47
2023-09-13T16:12:56.716Z,3.97
2023-09-13T16:15:24.734Z,3.75
2023-09-13T16:17:52.406Z,3.80
2023-09-13T16:20:20.315Z,3.80
2023-09-13T16:22:48.928Z,3.13
2023-09-13T16:25:17.762Z,4.30
2023-09-13T16:27:45.698Z,6.30
2023-09-13T16:30:17.324Z,4.55
2023-09-13T16:32:46.344Z,3.13
2023-09-13T16:35:14.079Z,3.40
2023-09-13T16:37:41.838Z,3.38
2023-09-13T16:40:10.402Z,6.68
2023-09-13T16:42:38.577Z,3.15
2023-09-13T16:45:07.272Z,3.20
2023-09-13T16:47:36.168Z,5.43
2023-09-13T16:50:04.196Z,5.72
2023-09-13T16:52:31.809Z,6.80
2023-09-13T16:54:59.453Z,6.65
2023-09-13T16:57:27.213Z,4.55
2023-09-13T16:59:54.989Z,4.47
2023-09-13T17:02:22.588Z,8.45
2023-09-13T17:04:51.553Z,7.22
2023-09-13T17:07:19.177Z,4.32
2023-09-13T17:09:47.213Z,4.95
2023-09-13T17:12:14.824Z,5.78
2023-09-13T17:14:43.107Z,4.45
2023-09-13T17:17:11.467Z,4.03
2023-09-13T17:19:39.054Z,4.75
2023-09-13T17:22:07.982Z,4.72
2023-09-13T17:24:35.585Z,5.65
2023-09-13T17:27:09.503Z,5.43
2023-09-13T17:29:37.892Z,3.50
2023-09-13T17:32:08.445Z,5.82
2023-09-13T17:34:36.615Z,7.35
2023-09-13T17:37:04.587Z,7.03
2023-09-13T17:39:33.631Z,5.45
2023-09-13T17:42:01.323Z,6.22
2023-09-13T17:44:28.868Z,6.97
2023-09-13T17:46:56.560Z,4.85
2023-09-13T17:49:24.403Z,8.35
2023-09-13T17:51:52.087Z,6.22
2023-09-13T17:54:19.927Z,5.97
2023-09-13T17:56:48.893Z,4.57
2023-09-13T17:59:16.450Z,5.03
2023-09-13T18:01:46.639Z,6.00
2023-09-13T18:04:14.465Z,6.28
2023-09-13T18:06:42.345Z,2.88
2023-09-13T18:09:09.960Z,2.20
2023-09-13T18:11:37.573Z,3.83
2023-09-13T18:14:06.831Z,5.25
2023-09-13T18:16:34.569Z,2.47
2023-09-13T18:19:02.278Z,2.05
2023-09-13T18:21:29.985Z,3.22
2023-09-13T18:23:57.642Z,2.70
2023-09-13T18:26:25.209Z,2.90
2023-09-13T18:28:55.385Z,4.72
2023-09-13T18:31:24.400Z,3.28
2023-09-13T18:33:53.524Z,3.20
2023-09-13T18:36:21.211Z,1.70
2023-09-13T18:38:51.048Z,3.10
2023-09-13T18:41:18.696Z,3.75
2023-09-13T18:43:46.242Z,3.08
2023-09-13T18:46:16.013Z,2.58
2023-09-13T18:48:45.483Z,2.67
2023-09-13T18:51:13.286Z,5.30
2023-09-13T18:53:40.864Z,3.80
2023-09-13T18:56:08.592Z,2.22
2023-09-13T18:58:36.155Z,6.15
2023-09-13T19:01:04.710Z,5.78
2023-09-13T19:03:33.956Z,6.93
2023-09-13T19:06:04.742Z,5.15
2023-09-13T19:08:33.197Z,5.85
2023-09-13T19:11:01.619Z,6.85
2023-09-13T19:13:30.530Z,2.47
2023-09-13T19:15:59.468Z,3.17
2023-09-13T19:18:28.338Z,3.30
2023-09-13T19:20:56.140Z,4.85
2023-09-13T19:23:25.662Z,7.80
2023-09-13T19:25:53.988Z,4.10
2023-09-13T19:28:21.918Z,3.60
2023-09-13T19:30:50.978Z,4.30
2023-09-13T19:33:22.309Z,5.38
2023-09-13T19:35:49.982Z,2.65
2023-09-13T19:38:29.369Z,5.25
2023-09-13T19:40:59.715Z,4.55
2023-09-13T19:43:28.887Z,3.83
2023-09-13T19:45:58.410Z,2.95
2023-09-13T19:48:26.571Z,8.63
2023-09-13T19:50:57.138Z,3.03
2023-09-13T19:53:25.221Z,6.32
2023-09-13T19:55:53.074Z,3.30
2023-09-13T19:58:22.063Z,3.75
2023-09-13T20:00:55.107Z,3.28
2023-09-13T20:03:23.165Z,4.95
2023-09-13T20:05:50.821Z,3.80
2023-09-13T20:08:18.361Z,3.78
2023-09-13T20:10:52.927Z,6.45
2023-09-13T20:13:22.191Z,3.47
2023-09-13T20:15:49.873Z,6.55
2023-09-13T20:18:17.541Z,3.17
2023-09-13T20:20:45.173Z,4.07
2023-09-13T20:23:12.736Z,6.80
2023-09-13T20:25:40.316Z,3.63
2023-09-13T20:28:07.899Z,7.30
2023-09-13T20:30:36.821Z,6.60
2023-09-13T20:33:05.839Z,7.05
2023-09-13T20:35:33.486Z,5.07
2023-09-13T20:38:01.077Z,3.67
2023-09-13T20:40:28.650Z,5.00
2023-09-13T20:42:56.366Z,3.20
2023-09-13T20:45:24.125Z,5.15
2023-09-13T20:47:53.144Z,5.95
2023-09-13T20:50:20.718Z,9.02
2023-09-13T20:52:48.270Z,6.03
2023-09-13T20:55:15.961Z,5.18
2023-09-13T20:57:43.551Z,4.95
2023-09-13T21:00:11.772Z,6.10
2023-09-13T21:02:39.369Z,7.05
2023-09-13T21:05:09.412Z,5.13
2023-09-13T21:07:37.007Z,8.18
2023-09-13T21:10:05.039Z,6.40
2023-09-13T21:12:32.638Z,8.95
2023-09-13T21:15:00.225Z,5.97
2023-09-13T21:17:27.820Z,9.27
2023-09-13T21:19:55.480Z,5.82
2023-09-13T21:22:24.438Z,4.97
2023-09-13T21:24:52.026Z,6.53
2023-09-13T21:27:19.592Z,5.55
2023-09-13T21:29:47.162Z,4.10
2023-09-13T21:32:14.738Z,7.60
2023-09-13T21:34:54.911Z,5.85
2023-09-13T21:37:30.309Z,7.30
2023-09-13T21:40:00.947Z,5.80
2023-09-13T21:42:28.675Z,5.25
2023-09-13T21:44:56.965Z,5.25
2023-09-13T21:47:24.565Z,5.45
2023-09-13T21:49:52.280Z,6.40
2023-09-13T21:52:19.864Z,4.38
2023-09-13T21:54:50.454Z,7.80
2023-09-13T21:57:19.776Z,4.40
2023-09-13T21:59:47.648Z,6.85
2023-09-13T22:02:15.498Z,5.90
2023-09-13T22:04:49.163Z,6.32
2023-09-13T22:07:16.801Z,9.15
2023-09-13T22:09:44.600Z,6.35
2023-09-13T22:12:13.653Z,6.40
2023-09-13T22:14:41.375Z,4.45
2023-09-13T22:17:08.044Z,3.25
2023-09-13T22:19:35.711Z,3.80
2023-09-13T22:22:03.460Z,8.15
2023-09-13T22:24:31.170Z,8.98
2023-09-13T22:26:58.839Z,6.43
2023-09-13T22:29:27.871Z,7.00
2023-09-13T22:31:55.656Z,4.70
2023-09-13T22:34:23.511Z,6.60
2023-09-13T22:36:51.258Z,5.82
2023-09-13T22:39:18.989Z,4.65
2023-09-13T22:41:46.704Z,7.55
2023-09-13T22:44:14.412Z,6.85
2023-09-13T22:46:43.464Z,11.15
2023-09-13T22:49:11.310Z,4.40
2023-09-13T22:51:39.098Z,7.80
2023-09-13T22:54:06.878Z,6.53
2023-09-13T22:56:34.778Z,4.82
2023-09-13T22:59:02.447Z,8.07
2023-09-13T23:01:30.194Z,6.57
2023-09-13T23:03:59.295Z,8.65
2023-09-13T23:06:27.057Z,9.20
2023-09-13T23:08:56.559Z,9.35
2023-09-13T23:11:24.473Z,8.02
2023-09-13T23:13:53.901Z,9.45
2023-09-13T23:16:21.866Z,6.78
2023-09-13T23:18:49.757Z,6.20
2023-09-13T23:21:19.622Z,5.70
2023-09-13T23:23:48.131Z,7.60
2023-09-13T23:26:15.732Z,4.93
2023-09-13T23:28:43.395Z,5.13
2023-09-13T23:31:12.721Z,9.40
2023-09-13T23:33:41.930Z,6.20
2023-09-13T23:36:11.117Z,7.15
2023-09-13T23:38:41.151Z,5.53
2023-09-13T23:41:10.439Z,8.73
2023-09-13T23:43:38.696Z,5.60
2023-09-13T23:46:08.037Z,12.13
2023-09-13T23:48:37.260Z,13.10
2023-09-13T23:51:05.895Z,8.57
2023-09-13T23:53:36.173Z,7.93
2023-09-13T23:56:07.147Z,8.98
2023-09-13T23:58:35.352Z,7.35
